createdAt,value
2023-04-20T00:01:49.671Z,74.12
2023-04-20T00:04:52.888Z,74.24
2023-04-20T00:07:55.330Z,74.05
2023-04-20T00:10:57.803Z,74.61
2023-04-20T00:14:00.309Z,75.21
2023-04-20T00:17:02.901Z,75.08
2023-04-20T00:20:06.503Z,75.53
2023-04-20T00:23:08.958Z,75.54
2023-04-20T00:26:11.386Z,75.63
2023-04-20T00:29:14.624Z,75.68
2023-04-20T00:32:16.999Z,75.56
2023-04-20T00:35:19.496Z,75.64
2023-04-20T00:38:21.978Z,75.21
2023-04-20T00:41:24.524Z,75.63
2023-04-20T00:44:27.913Z,75.15
2023-04-20T00:47:30.413Z,74.77
2023-04-20T00:50:34.095Z,75.62
2023-04-20T00:53:36.807Z,75.42
2023-04-20T00:56:39.293Z,76.12
2023-04-20T00:59:43.086Z,75.84
2023-04-20T01:02:45.931Z,76.50
2023-04-20T01:05:48.615Z,75.93
2023-04-20T01:08:51.910Z,76.17
2023-04-20T01:11:54.357Z,76.23
2023-04-20T01:14:56.817Z,75.81
2023-04-20T01:17:59.768Z,75.44
2023-04-20T01:21:02.229Z,75.66
2023-04-20T01:24:05.588Z,75.55
2023-04-20T01:27:08.241Z,75.20
2023-04-20T01:30:11.793Z,75.59
2023-04-20T01:33:14.191Z,75.37
2023-04-20T01:36:16.740Z,75.09
2023-04-20T01:39:21.028Z,74.58
2023-04-20T01:42:24.115Z,74.73
2023-04-20T01:45:26.586Z,74.60
2023-04-20T01:48:29.052Z,74.34
2023-04-20T01:51:33.121Z,74.70
2023-04-20T01:54:37.472Z,74.75
2023-04-20T01:57:39.827Z,75.19
2023-04-20T02:00:42.367Z,75.06
2023-04-20T02:03:45.533Z,74.84
2023-04-20T02:06:48.915Z,74.97
2023-04-20T02:09:51.364Z,75.40
2023-04-20T02:12:53.871Z,75.38
2023-04-20T02:15:57.041Z,75.23
2023-04-20T02:19:00.018Z,75.22
2023-04-20T02:22:02.847Z,75.38
2023-04-20T02:25:06.555Z,75.68
2023-04-20T02:28:08.962Z,76.24
2023-04-20T02:31:14.155Z,75.32
2023-04-20T02:34:20.592Z,75.63
2023-04-20T02:37:22.989Z,75.75
2023-04-20T02:40:25.651Z,76.14
2023-04-20T02:43:28.414Z,76.48
2023-04-20T02:46:31.220Z,76.89
2023-04-20T02:49:34.422Z,77.05
2023-04-20T02:52:37.006Z,77.86
2023-04-20T02:55:39.894Z,77.70
2023-04-20T02:58:57.383Z,77.98
2023-04-20T03:02:05.348Z,77.87
2023-04-20T03:05:08.186Z,77.79
2023-04-20T03:08:17.866Z,78.32
2023-04-20T03:11:22.626Z,78.82
2023-04-20T03:14:25.993Z,79.20
2023-04-20T03:17:28.587Z,79.09
2023-04-20T03:20:31.155Z,79.01
2023-04-20T03:23:33.918Z,79.40
2023-04-20T03:26:37.612Z,79.62
2023-04-20T03:30:00.751Z,79.32
2023-04-20T03:33:04.103Z,80.18
2023-04-20T03:36:07.035Z,80.26
2023-04-20T03:39:09.996Z,79.73
2023-04-20T03:42:12.343Z,80.18
2023-04-20T03:45:15.688Z,79.61
2023-04-20T03:48:18.402Z,80.46
2023-04-20T03:51:21.050Z,81.17
2023-04-20T03:54:23.562Z,81.63
2023-04-20T03:57:26.258Z,81.55
2023-04-20T04:00:29.430Z,81.32
2023-04-20T04:03:40.786Z,80.64
2023-04-20T04:06:45.281Z,81.40
2023-04-20T04:09:48.161Z,80.89
2023-04-20T04:12:51.562Z,81.34
2023-04-20T04:15:54.355Z,81.15
2023-04-20T04:18:58.082Z,81.31
2023-04-20T04:22:01.205Z,80.14
2023-04-20T04:25:08.215Z,80.08
2023-04-20T04:28:11.205Z,80.60
2023-04-20T04:31:21.670Z,79.94
2023-04-20T04:34:29.764Z,79.99
2023-04-20T04:37:32.250Z,79.40
2023-04-20T04:40:34.770Z,79.25
2023-04-20T04:43:41.605Z,78.12
2023-04-20T04:46:58.809Z,78.01
2023-04-20T04:50:06.080Z,77.59
2023-04-20T04:53:08.754Z,76.90
2023-04-20T04:56:11.680Z,75.57
2023-04-20T04:59:14.134Z,75.38
2023-04-20T05:02:17.000Z,74.75
2023-04-20T05:05:21.961Z,73.58
2023-04-20T05:08:26.810Z,71.99
2023-04-20T05:11:29.213Z,71.56
2023-04-20T05:14:32.224Z,70.86
2023-04-20T05:17:35.078Z,70.43
2023-04-20T05:20:37.813Z,70.26
2023-04-20T05:23:41.362Z,69.71
2023-04-20T05:26:44.057Z,69.37
2023-04-20T05:29:47.339Z,69.60
2023-04-20T05:32:52.226Z,68.24
2023-04-20T05:35:58.362Z,67.25
2023-04-20T05:39:01.258Z,65.39
2023-04-20T05:42:03.915Z,63.31
2023-04-20T05:45:07.173Z,62.09
2023-04-20T05:48:10.875Z,60.05
2023-04-20T05:51:14.275Z,57.96
2023-04-20T05:54:17.129Z,54.75
2023-04-20T05:57:19.567Z,54.04
2023-04-20T06:00:24.449Z,52.66
2023-04-20T06:03:28.415Z,51.83
2023-04-20T06:06:31.588Z,51.31
2023-04-20T06:09:34.033Z,51.25
2023-04-20T06:12:36.705Z,52.51
2023-04-20T06:15:39.240Z,56.45
2023-04-20T06:18:41.633Z,51.22
2023-04-20T06:21:44.121Z,48.17
2023-04-20T06:24:46.667Z,47.17
2023-04-20T06:27:51.259Z,45.49
2023-04-20T06:30:54.952Z,45.07
2023-04-20T06:33:57.333Z,44.45
2023-04-20T06:36:59.669Z,43.31
2023-04-20T06:40:08.001Z,43.12
2023-04-20T06:43:10.555Z,42.99
2023-04-20T06:46:13.009Z,46.22
2023-04-20T06:49:15.609Z,46.56
2023-04-20T06:52:18.303Z,50.84
2023-04-20T06:55:21.446Z,53.96
2023-04-20T06:58:23.863Z,54.47
2023-04-20T07:01:26.486Z,53.85
2023-04-20T07:04:29.076Z,52.86
2023-04-20T07:07:31.493Z,44.43
2023-04-20T07:10:33.883Z,41.20
2023-04-20T07:13:36.315Z,40.36
2023-04-20T07:16:38.774Z,38.41
2023-04-20T07:19:41.288Z,37.06
2023-04-20T07:22:43.871Z,42.92
2023-04-20T07:25:47.683Z,46.61
2023-04-20T07:28:51.450Z,50.38
2023-04-20T07:31:53.987Z,51.40
2023-04-20T07:34:56.664Z,45.27
2023-04-20T07:37:59.056Z,42.62
2023-04-20T07:41:01.838Z,38.30
2023-04-20T07:44:04.356Z,36.07
2023-04-20T07:47:07.128Z,36.28
2023-04-20T07:50:09.758Z,35.52
2023-04-20T07:53:12.484Z,36.46
2023-04-20T07:56:14.922Z,33.78
2023-04-20T07:59:17.786Z,33.31
2023-04-20T08:02:20.992Z,32.53
2023-04-20T08:05:24.530Z,32.37
2023-04-20T08:08:27.771Z,33.04
2023-04-20T08:11:30.248Z,32.78
2023-04-20T08:14:33.736Z,33.49
2023-04-20T08:17:36.233Z,32.60
2023-04-20T08:20:38.738Z,32.51
2023-04-20T08:23:41.323Z,32.38
2023-04-20T08:26:43.850Z,32.21
2023-04-20T08:29:46.558Z,34.50
2023-04-20T08:32:49.018Z,31.28
2023-04-20T08:35:52.734Z,33.19
2023-04-20T08:39:07.724Z,31.44
2023-04-20T08:42:34.438Z,32.21
2023-04-20T08:45:37.153Z,31.96
2023-04-20T08:48:45.462Z,32.30
2023-04-20T08:51:49.102Z,30.37
2023-04-20T08:54:56.841Z,31.22
2023-04-20T08:58:00.064Z,31.55
2023-04-20T09:01:02.539Z,30.03
2023-04-20T09:04:28.937Z,30.34
2023-04-20T09:07:32.968Z,32.54
2023-04-20T09:10:45.194Z,35.21
2023-04-20T09:14:18.516Z,37.67
2023-04-20T09:17:36.244Z,33.63
2023-04-20T09:20:38.718Z,31.64
2023-04-20T09:23:41.207Z,31.80
2023-04-20T09:26:43.600Z,30.08
2023-04-20T09:30:01.415Z,27.95
2023-04-20T09:33:05.471Z,29.59
2023-04-20T09:36:08.085Z,30.03
2023-04-20T09:39:16.640Z,29.99
2023-04-20T09:42:20.246Z,31.53
2023-04-20T09:45:23.033Z,28.67
2023-04-20T09:48:25.879Z,29.25
2023-04-20T09:51:28.586Z,29.40
2023-04-20T09:54:31.789Z,32.03
2023-04-20T09:57:34.698Z,33.95
2023-04-20T10:00:37.169Z,32.68
2023-04-20T10:03:44.004Z,31.42
2023-04-20T10:06:58.112Z,28.88
2023-04-20T10:10:12.525Z,27.94
2023-04-20T10:13:16.285Z,27.16
2023-04-20T10:16:19.233Z,27.25
2023-04-20T10:19:21.803Z,27.59
2023-04-20T10:22:32.988Z,28.16
2023-04-20T10:25:36.116Z,26.14
2023-04-20T10:28:40.325Z,25.65
2023-04-20T10:31:43.090Z,26.99
2023-04-20T10:34:45.836Z,27.48
2023-04-20T10:37:49.994Z,27.54
2023-04-20T10:40:52.381Z,26.71
2023-04-20T10:43:55.046Z,26.28
2023-04-20T10:46:59.189Z,26.31
2023-04-20T10:50:16.842Z,25.12
2023-04-20T10:53:23.397Z,25.32
2023-04-20T10:56:27.055Z,26.27
2023-04-20T10:59:29.527Z,26.13
2023-04-20T11:02:32.530Z,23.80
2023-04-20T11:05:35.134Z,26.37
2023-04-20T11:08:41.678Z,23.82
2023-04-20T11:11:44.134Z,27.52
2023-04-20T11:14:58.754Z,25.13
2023-04-20T11:18:08.943Z,28.96
2023-04-20T11:21:11.821Z,32.64
2023-04-20T11:24:21.990Z,33.35
2023-04-20T11:27:24.824Z,36.66
2023-04-20T11:30:40.865Z,37.06
2023-04-20T11:33:43.373Z,36.93
2023-04-20T11:36:46.440Z,38.79
2023-04-20T11:39:59.519Z,38.98
2023-04-20T11:43:02.238Z,38.59
2023-04-20T11:46:14.484Z,37.76
2023-04-20T11:49:17.515Z,38.87
2023-04-20T11:52:20.373Z,41.08
2023-04-20T11:55:22.854Z,40.02
2023-04-20T11:58:25.314Z,40.30
2023-04-20T12:01:27.771Z,40.53
2023-04-20T12:04:31.554Z,41.44
2023-04-20T12:07:34.186Z,40.45
2023-04-20T12:10:36.747Z,41.68
2023-04-20T12:13:39.098Z,43.58
2023-04-20T12:16:41.693Z,38.86
2023-04-20T12:19:44.189Z,37.31
2023-04-20T12:22:47.004Z,35.82
2023-04-20T12:25:49.469Z,34.09
2023-04-20T12:28:52.122Z,33.16
2023-04-20T12:31:59.643Z,33.94
2023-04-20T12:35:02.642Z,36.62
2023-04-20T12:38:05.396Z,37.99
2023-04-20T12:41:08.060Z,39.65
2023-04-20T12:44:11.570Z,40.70
2023-04-20T12:47:14.037Z,39.54
2023-04-20T12:50:16.643Z,39.80
2023-04-20T12:53:19.919Z,40.92
2023-04-20T12:56:22.336Z,41.58
2023-04-20T12:59:24.753Z,41.81
2023-04-20T13:02:27.269Z,40.21
2023-04-20T13:05:30.090Z,40.89
2023-04-20T13:08:32.612Z,40.94
2023-04-20T13:11:35.236Z,40.43
2023-04-20T13:14:37.609Z,41.50
2023-04-20T13:17:40.206Z,41.44
2023-04-20T13:20:42.645Z,43.25
2023-04-20T13:23:45.425Z,40.41
2023-04-20T13:26:47.857Z,38.96
2023-04-20T13:29:50.345Z,36.11
2023-04-20T13:32:53.000Z,38.06
2023-04-20T13:35:55.565Z,36.65
2023-04-20T13:38:58.152Z,39.73
2023-04-20T13:42:00.666Z,38.89
2023-04-20T13:45:04.209Z,39.89
2023-04-20T13:48:06.769Z,40.81
2023-04-20T13:51:09.333Z,41.49
2023-04-20T13:54:12.545Z,44.18
2023-04-20T13:57:14.974Z,42.27
2023-04-20T14:00:17.952Z,41.79
2023-04-20T14:03:21.274Z,43.05
2023-04-20T14:06:23.997Z,43.25
2023-04-20T14:09:28.286Z,43.34
2023-04-20T14:12:30.669Z,43.50
2023-04-20T14:15:34.029Z,43.33
2023-04-20T14:18:36.919Z,41.99
2023-04-20T14:21:40.221Z,39.54
2023-04-20T14:24:45.309Z,38.16
2023-04-20T14:27:47.725Z,38.56
2023-04-20T14:30:52.675Z,35.90
2023-04-20T14:33:55.350Z,37.09
2023-04-20T14:36:57.796Z,34.39
2023-04-20T14:40:00.448Z,34.33
2023-04-20T14:43:03.015Z,33.47
2023-04-20T14:46:06.084Z,34.26
2023-04-20T14:49:09.058Z,35.11
2023-04-20T14:52:11.553Z,35.69
2023-04-20T14:55:14.028Z,35.76
2023-04-20T14:58:18.253Z,35.70
2023-04-20T15:01:21.919Z,37.58
2023-04-20T15:04:24.976Z,36.85
2023-04-20T15:07:28.504Z,38.24
2023-04-20T15:10:36.541Z,37.30
2023-04-20T15:13:42.320Z,36.67
2023-04-20T15:16:44.710Z,37.58
2023-04-20T15:19:47.232Z,37.97
2023-04-20T15:22:49.910Z,38.34
2023-04-20T15:25:52.865Z,34.72
2023-04-20T15:28:56.707Z,35.46
2023-04-20T15:31:59.547Z,34.20
2023-04-20T15:35:02.066Z,35.33
2023-04-20T15:38:04.572Z,33.88
2023-04-20T15:41:07.679Z,35.75
2023-04-20T15:44:10.089Z,34.82
2023-04-20T15:47:12.522Z,36.14
2023-04-20T15:50:16.622Z,37.44
2023-04-20T15:53:19.678Z,37.10
2023-04-20T15:56:22.805Z,37.00
2023-04-20T15:59:25.528Z,38.11
2023-04-20T16:02:28.219Z,39.08
2023-04-20T16:05:30.828Z,39.88
2023-04-20T16:08:33.496Z,40.95
2023-04-20T16:11:35.837Z,37.56
2023-04-20T16:14:38.239Z,37.79
2023-04-20T16:17:40.741Z,36.50
2023-04-20T16:20:43.142Z,36.67
2023-04-20T16:23:45.564Z,36.06
2023-04-20T16:26:47.950Z,37.53
2023-04-20T16:29:50.387Z,37.41
2023-04-20T16:32:53.215Z,38.92
2023-04-20T16:35:55.922Z,40.14
2023-04-20T16:38:58.522Z,41.67
2023-04-20T16:42:01.424Z,41.51
2023-04-20T16:45:04.627Z,42.29
2023-04-20T16:48:08.273Z,42.71
2023-04-20T16:51:10.951Z,42.97
2023-04-20T16:54:13.457Z,42.70
2023-04-20T16:57:15.842Z,44.06
2023-04-20T17:00:18.555Z,43.84
2023-04-20T17:03:21.559Z,44.67
2023-04-20T17:06:23.971Z,43.70
2023-04-20T17:09:26.419Z,44.52
2023-04-20T17:12:29.533Z,45.15
2023-04-20T17:15:31.953Z,45.12
2023-04-20T17:18:35.214Z,46.91
2023-04-20T17:21:40.174Z,46.70
2023-04-20T17:24:42.516Z,46.95
2023-04-20T17:27:44.965Z,47.10
2023-04-20T17:30:47.326Z,48.32
2023-04-20T17:33:49.997Z,48.52
2023-04-20T17:36:52.624Z,48.51
2023-04-20T17:39:55.941Z,48.63
2023-04-20T17:42:58.581Z,48.75
2023-04-20T17:46:01.218Z,48.45
2023-04-20T17:49:03.782Z,48.44
2023-04-20T17:52:06.766Z,47.02
2023-04-20T17:55:09.221Z,47.91
2023-04-20T17:58:12.952Z,47.32
2023-04-20T18:01:15.744Z,46.30
2023-04-20T18:04:18.659Z,45.89
2023-04-20T18:07:21.608Z,44.74
2023-04-20T18:10:24.535Z,43.91
2023-04-20T18:13:28.114Z,42.76
2023-04-20T18:16:30.532Z,43.56
2023-04-20T18:19:33.013Z,43.54
2023-04-20T18:22:37.201Z,44.26
2023-04-20T18:25:43.023Z,43.78
2023-04-20T18:28:45.799Z,45.65
2023-04-20T18:31:50.123Z,44.05
2023-04-20T18:34:54.176Z,44.81
2023-04-20T18:37:56.815Z,44.48
2023-04-20T18:40:59.924Z,44.59
2023-04-20T18:44:03.232Z,43.70
2023-04-20T18:47:05.754Z,45.09
2023-04-20T18:50:09.142Z,44.73
2023-04-20T18:53:11.856Z,44.77
2023-04-20T18:56:14.611Z,45.27
2023-04-20T18:59:17.320Z,45.84
2023-04-20T19:02:20.899Z,45.66
2023-04-20T19:05:25.289Z,46.52
2023-04-20T19:08:27.931Z,46.90
2023-04-20T19:11:31.536Z,46.98
2023-04-20T19:14:34.276Z,45.66
2023-04-20T19:17:36.988Z,45.39
2023-04-20T19:20:39.921Z,45.78
2023-04-20T19:23:42.619Z,46.02
2023-04-20T19:26:45.679Z,47.06
2023-04-20T19:29:48.390Z,44.41
2023-04-20T19:32:51.577Z,45.09
2023-04-20T19:35:54.069Z,45.94
2023-04-20T19:38:56.780Z,45.79
2023-04-20T19:41:59.478Z,45.89
2023-04-20T19:45:04.326Z,45.86
2023-04-20T19:48:07.064Z,46.82
2023-04-20T19:51:11.554Z,47.18
2023-04-20T19:54:16.637Z,46.62
2023-04-20T19:57:19.367Z,47.42
2023-04-20T20:00:22.315Z,46.80
2023-04-20T20:03:24.947Z,46.69
2023-04-20T20:06:27.455Z,46.58
2023-04-20T20:09:30.839Z,46.82
2023-04-20T20:12:33.486Z,46.38
2023-04-20T20:15:37.408Z,47.08
2023-04-20T20:18:40.261Z,46.87
2023-04-20T20:21:42.824Z,47.09
2023-04-20T20:24:47.355Z,48.91
2023-04-20T20:27:49.974Z,48.68
2023-04-20T20:30:52.579Z,47.92
2023-04-20T20:33:55.142Z,50.27
2023-04-20T20:36:58.623Z,53.95
2023-04-20T20:40:07.330Z,54.66
2023-04-20T20:43:10.755Z,58.35
2023-04-20T20:46:13.277Z,56.31
2023-04-20T20:49:16.545Z,57.55
2023-04-20T20:52:19.045Z,58.53
2023-04-20T20:55:21.557Z,58.54
2023-04-20T20:58:24.032Z,58.29
2023-04-20T21:01:26.602Z,58.94
2023-04-20T21:04:30.185Z,58.53
2023-04-20T21:07:32.717Z,57.04
2023-04-20T21:10:35.488Z,57.34
2023-04-20T21:13:39.626Z,55.58
2023-04-20T21:16:42.031Z,55.42
2023-04-20T21:19:44.554Z,55.28
2023-04-20T21:22:47.052Z,54.04
2023-04-20T21:25:49.471Z,54.18
2023-04-20T21:28:52.091Z,54.09
2023-04-20T21:31:54.491Z,53.80
2023-04-20T21:34:56.922Z,53.61
2023-04-20T21:37:59.476Z,53.75
2023-04-20T21:41:01.937Z,53.46
2023-04-20T21:44:04.428Z,53.73
2023-04-20T21:47:06.834Z,53.79
2023-04-20T21:50:09.858Z,54.22
2023-04-20T21:53:12.207Z,53.53
2023-04-20T21:56:14.961Z,54.16
2023-04-20T21:59:17.489Z,53.75
2023-04-20T22:02:20.092Z,53.87
2023-04-20T22:05:22.598Z,54.49
2023-04-20T22:08:25.695Z,54.11
2023-04-20T22:11:29.554Z,53.11
2023-04-20T22:14:32.065Z,53.94
2023-04-20T22:17:34.401Z,54.17
2023-04-20T22:20:37.593Z,54.10
2023-04-20T22:23:40.000Z,53.83
2023-04-20T22:26:42.523Z,53.22
2023-04-20T22:29:44.837Z,52.99
2023-04-20T22:32:47.458Z,53.00
2023-04-20T22:35:49.794Z,53.15
2023-04-20T22:38:52.418Z,52.81
2023-04-20T22:41:54.844Z,51.43
2023-04-20T22:44:57.237Z,51.49
2023-04-20T22:47:59.712Z,48.84
2023-04-20T22:51:02.885Z,48.43
2023-04-20T22:54:05.367Z,48.89
2023-04-20T22:57:07.860Z,48.55
2023-04-20T23:00:11.070Z,47.79
2023-04-20T23:03:13.703Z,47.67
2023-04-20T23:06:18.133Z,47.29
2023-04-20T23:09:20.929Z,48.24
2023-04-20T23:12:23.737Z,48.93
2023-04-20T23:15:26.480Z,47.49
2023-04-20T23:18:28.994Z,47.14
2023-04-20T23:21:32.919Z,46.47
2023-04-20T23:24:35.769Z,47.73
2023-04-20T23:27:38.380Z,47.07
2023-04-20T23:30:40.835Z,47.07
2023-04-20T23:33:43.507Z,48.14
2023-04-20T23:36:46.421Z,47.84
2023-04-20T23:39:48.847Z,47.79
2023-04-20T23:42:51.278Z,48.30
2023-04-20T23:45:53.737Z,48.28
2023-04-20T23:48:56.197Z,48.97
2023-04-20T23:51:59.410Z,49.76
2023-04-20T23:55:01.877Z,49.01
2023-04-20T23:58:04.411Z,49.10
